createdAt,value
2023-03-29T00:00:32.489Z,3.96
2023-03-29T00:01:35.689Z,3.96
2023-03-29T00:02:32.528Z,3.95
2023-03-29T00:03:32.538Z,3.96
2023-03-29T00:04:32.471Z,3.96
2023-03-29T00:05:32.464Z,3.96
2023-03-29T00:06:32.423Z,3.99
2023-03-29T00:07:32.434Z,4.00
2023-03-29T00:08:32.436Z,4.00
2023-03-29T00:09:32.401Z,4.00
2023-03-29T00:10:32.473Z,4.02
2023-03-29T00:11:32.415Z,3.99
2023-03-29T00:12:32.365Z,4.00
2023-03-29T00:13:32.379Z,3.99
2023-03-29T00:14:32.338Z,3.98
2023-03-29T00:15:32.338Z,3.96
2023-03-29T00:16:32.398Z,3.95
2023-03-29T00:17:32.399Z,3.95
2023-03-29T00:18:32.308Z,3.93
2023-03-29T00:19:32.313Z,3.93
2023-03-29T00:20:32.274Z,3.89
2023-03-29T00:21:32.275Z,3.89
2023-03-29T00:22:32.280Z,3.81
2023-03-29T00:23:32.245Z,3.70
2023-03-29T00:24:32.240Z,3.60
2023-03-29T00:25:32.265Z,3.49
2023-03-29T00:26:32.216Z,3.46
2023-03-29T00:27:32.517Z,3.42
2023-03-29T00:28:32.209Z,3.42
2023-03-29T00:29:32.259Z,3.42
2023-03-29T00:30:32.180Z,3.42
2023-03-29T00:31:32.268Z,3.41
2023-03-29T00:32:32.185Z,3.44
2023-03-29T00:33:32.156Z,3.45
2023-03-29T00:34:32.138Z,3.45
2023-03-29T00:35:32.151Z,3.44
2023-03-29T00:36:32.138Z,3.46
2023-03-29T00:37:32.131Z,3.42
2023-03-29T00:38:32.135Z,3.42
2023-03-29T00:39:32.091Z,3.42
2023-03-29T00:40:32.063Z,3.41
2023-03-29T00:41:32.073Z,3.42
2023-03-29T00:42:32.068Z,3.42
2023-03-29T00:43:32.043Z,3.34
2023-03-29T00:44:32.039Z,3.35
2023-03-29T00:45:32.024Z,3.28
2023-03-29T00:46:32.118Z,3.25
2023-03-29T00:47:32.059Z,3.28
2023-03-29T00:48:31.991Z,3.30
2023-03-29T00:49:31.983Z,3.30
2023-03-29T00:50:31.964Z,3.33
2023-03-29T00:51:31.955Z,3.33
2023-03-29T00:52:31.969Z,3.33
2023-03-29T00:53:31.955Z,3.34
2023-03-29T00:54:32.014Z,3.35
2023-03-29T00:55:31.912Z,3.39
2023-03-29T00:56:31.904Z,3.41
2023-03-29T00:57:31.910Z,3.37
2023-03-29T00:58:31.899Z,3.37
2023-03-29T00:59:31.885Z,3.37
2023-03-29T01:00:31.894Z,3.39
2023-03-29T01:01:31.940Z,3.34
2023-03-29T01:02:31.971Z,3.33
2023-03-29T01:03:31.963Z,3.25
2023-03-29T01:04:31.818Z,3.23
2023-03-29T01:05:31.820Z,3.17
2023-03-29T01:06:31.861Z,3.16
2023-03-29T01:07:31.798Z,3.13
2023-03-29T01:08:31.791Z,3.10
2023-03-29T01:09:31.782Z,3.08
2023-03-29T01:10:31.751Z,3.05
2023-03-29T01:11:31.753Z,3.05
2023-03-29T01:12:31.747Z,3.04
2023-03-29T01:13:31.758Z,3.01
2023-03-29T01:14:31.712Z,2.98
2023-03-29T01:15:31.707Z,3.01
2023-03-29T01:16:31.755Z,3.02
2023-03-29T01:17:31.860Z,3.04
2023-03-29T01:18:31.698Z,3.07
2023-03-29T01:19:31.671Z,3.12
2023-03-29T01:20:31.687Z,3.15
2023-03-29T01:21:31.646Z,3.15
2023-03-29T01:22:31.630Z,3.17
2023-03-29T01:23:31.666Z,3.23
2023-03-29T01:24:31.709Z,3.23
2023-03-29T01:25:31.629Z,3.26
2023-03-29T01:26:31.585Z,3.31
2023-03-29T01:27:31.590Z,3.34
2023-03-29T01:28:31.605Z,3.37
2023-03-29T01:29:31.606Z,3.41
2023-03-29T01:30:31.561Z,3.42
2023-03-29T01:31:31.554Z,3.41
2023-03-29T01:32:31.539Z,3.42
2023-03-29T01:33:31.539Z,3.41
2023-03-29T01:34:31.501Z,3.39
2023-03-29T01:35:31.519Z,3.39
2023-03-29T01:36:31.481Z,3.42
2023-03-29T01:37:31.480Z,3.37
2023-03-29T01:38:31.475Z,3.39
2023-03-29T01:39:31.564Z,3.39
2023-03-29T01:40:31.530Z,3.37
2023-03-29T01:41:31.456Z,3.35
2023-03-29T01:42:31.443Z,3.34
2023-03-29T01:43:31.432Z,3.33
2023-03-29T01:44:31.404Z,3.33
2023-03-29T01:45:31.422Z,3.31
2023-03-29T01:46:31.498Z,3.33
2023-03-29T01:47:31.458Z,3.35
2023-03-29T01:48:31.375Z,3.35
2023-03-29T01:49:31.345Z,3.41
2023-03-29T01:50:31.356Z,3.41
2023-03-29T01:51:31.362Z,3.44
2023-03-29T01:52:31.318Z,3.37
2023-03-29T01:53:31.325Z,3.44
2023-03-29T01:54:31.297Z,3.42
2023-03-29T01:55:31.286Z,3.42
2023-03-29T01:56:31.290Z,3.50
2023-03-29T01:57:31.266Z,3.49
2023-03-29T01:58:31.274Z,3.54
2023-03-29T01:59:31.246Z,3.52
2023-03-29T02:00:31.240Z,3.53
2023-03-29T02:01:31.311Z,3.50
2023-03-29T02:02:31.243Z,3.52
2023-03-29T02:03:31.321Z,3.52
2023-03-29T02:04:31.179Z,3.52
2023-03-29T02:05:31.179Z,3.52
2023-03-29T02:06:31.168Z,3.53
2023-03-29T02:07:31.158Z,3.50
2023-03-29T02:08:31.165Z,3.46
2023-03-29T02:09:31.126Z,3.45
2023-03-29T02:10:31.132Z,3.46
2023-03-29T02:11:31.129Z,3.44
2023-03-29T02:12:31.096Z,3.45
2023-03-29T02:13:31.091Z,3.44
2023-03-29T02:14:31.073Z,3.39
2023-03-29T02:15:31.080Z,3.39
2023-03-29T02:16:31.070Z,3.35
2023-03-29T02:17:31.091Z,3.30
2023-03-29T02:18:31.040Z,3.28
2023-03-29T02:19:31.058Z,3.28
2023-03-29T02:20:31.025Z,3.26
2023-03-29T02:21:31.007Z,3.25
2023-03-29T02:22:30.990Z,3.28
2023-03-29T02:23:31.013Z,3.26
2023-03-29T02:24:30.968Z,3.30
2023-03-29T02:25:30.966Z,3.30
2023-03-29T02:26:30.940Z,3.30
2023-03-29T02:27:30.947Z,3.30
2023-03-29T02:28:30.938Z,3.31
2023-03-29T02:29:30.916Z,3.30
2023-03-29T02:30:30.900Z,3.30
2023-03-29T02:31:30.937Z,3.31
2023-03-29T02:32:30.922Z,3.34
2023-03-29T02:33:30.891Z,3.31
2023-03-29T02:34:30.882Z,3.33
2023-03-29T02:35:30.904Z,3.35
2023-03-29T02:36:30.844Z,3.31
2023-03-29T02:37:30.835Z,3.31
2023-03-29T02:38:30.824Z,3.31
2023-03-29T02:39:30.805Z,3.30
2023-03-29T02:40:30.818Z,3.30
2023-03-29T02:41:30.845Z,3.31
2023-03-29T02:42:30.780Z,3.28
2023-03-29T02:43:30.764Z,3.31
2023-03-29T02:44:30.754Z,3.30
2023-03-29T02:45:30.746Z,3.34
2023-03-29T02:46:30.811Z,3.34
2023-03-29T02:47:30.750Z,3.33
2023-03-29T02:48:30.727Z,3.34
2023-03-29T02:49:30.716Z,3.35
2023-03-29T02:50:30.695Z,3.34
2023-03-29T02:51:30.689Z,3.37
2023-03-29T02:52:30.673Z,3.37
2023-03-29T02:53:30.704Z,3.39
2023-03-29T02:54:30.654Z,3.37
2023-03-29T02:55:30.646Z,3.37
2023-03-29T02:56:30.643Z,3.39
2023-03-29T02:57:30.621Z,3.39
2023-03-29T02:58:30.630Z,3.37
2023-03-29T02:59:30.600Z,3.39
2023-03-29T03:00:30.591Z,3.37
2023-03-29T03:01:36.643Z,3.35
2023-03-29T03:02:30.644Z,3.34
2023-03-29T03:03:31.419Z,3.34
2023-03-29T03:04:31.284Z,3.34
2023-03-29T03:05:30.543Z,3.34
2023-03-29T03:06:30.517Z,3.31
2023-03-29T03:07:30.517Z,3.33
2023-03-29T03:08:30.512Z,3.30
2023-03-29T03:09:30.495Z,3.28
2023-03-29T03:10:30.474Z,3.22
2023-03-29T03:11:30.474Z,3.19
2023-03-29T03:12:30.461Z,3.15
2023-03-29T03:13:30.464Z,3.13
2023-03-29T03:14:30.448Z,3.10
2023-03-29T03:15:30.437Z,3.08
2023-03-29T03:16:30.471Z,3.08
2023-03-29T03:17:30.415Z,3.05
2023-03-29T03:18:30.437Z,3.07
2023-03-29T03:19:30.397Z,3.04
2023-03-29T03:20:30.368Z,2.99
2023-03-29T03:21:30.379Z,2.99
2023-03-29T03:22:30.348Z,2.98
2023-03-29T03:23:30.405Z,2.94
2023-03-29T03:24:30.332Z,2.95
2023-03-29T03:25:30.328Z,2.94
2023-03-29T03:26:30.370Z,2.94
2023-03-29T03:27:30.298Z,2.95
2023-03-29T03:28:30.308Z,2.97
2023-03-29T03:29:30.277Z,2.98
2023-03-29T03:30:30.266Z,2.94
2023-03-29T03:31:30.286Z,2.89
2023-03-29T03:32:30.300Z,2.87
2023-03-29T03:33:30.258Z,2.83
2023-03-29T03:34:30.228Z,2.86
2023-03-29T03:35:30.225Z,2.84
2023-03-29T03:36:30.203Z,2.86
2023-03-29T03:37:30.184Z,2.89
2023-03-29T03:38:30.226Z,2.89
2023-03-29T03:39:30.164Z,2.89
2023-03-29T03:40:30.197Z,2.87
2023-03-29T03:41:30.156Z,2.87
2023-03-29T03:42:30.174Z,2.83
2023-03-29T03:43:30.119Z,2.86
2023-03-29T03:44:30.122Z,2.84
2023-03-29T03:45:30.151Z,2.83
2023-03-29T03:46:30.124Z,2.79
2023-03-29T03:47:30.117Z,2.81
2023-03-29T03:48:30.109Z,2.80
2023-03-29T03:49:30.062Z,2.79
2023-03-29T03:50:30.060Z,2.77
2023-03-29T03:51:30.083Z,2.79
2023-03-29T03:52:30.046Z,2.80
2023-03-29T03:53:30.039Z,2.81
2023-03-29T03:54:30.013Z,2.83
2023-03-29T03:55:29.997Z,2.83
2023-03-29T03:56:30.013Z,2.86
2023-03-29T03:57:29.974Z,2.87
2023-03-29T03:58:29.970Z,2.92
2023-03-29T03:59:29.988Z,2.90
2023-03-29T04:00:29.951Z,2.89
2023-03-29T04:01:29.985Z,2.90
2023-03-29T04:02:29.967Z,2.89
2023-03-29T04:03:30.034Z,2.89
2023-03-29T04:04:29.992Z,2.89
2023-03-29T04:05:29.889Z,2.84
2023-03-29T04:06:29.891Z,2.84
2023-03-29T04:07:29.871Z,2.83
2023-03-29T04:08:29.888Z,2.83
2023-03-29T04:09:29.867Z,2.76
2023-03-29T04:10:29.848Z,2.74
2023-03-29T04:11:29.838Z,2.69
2023-03-29T04:12:29.906Z,2.71
2023-03-29T04:13:29.846Z,2.73
2023-03-29T04:14:29.846Z,2.71
2023-03-29T04:15:29.848Z,2.74
2023-03-29T04:16:29.899Z,2.74
2023-03-29T04:17:29.845Z,2.76
2023-03-29T04:18:29.808Z,2.77
2023-03-29T04:19:29.726Z,2.79
2023-03-29T04:20:29.733Z,2.74
2023-03-29T04:21:29.723Z,2.77
2023-03-29T04:22:29.723Z,2.77
2023-03-29T04:23:29.654Z,2.76
2023-03-29T04:24:29.761Z,2.76
2023-03-29T04:25:29.682Z,2.77
2023-03-29T04:26:29.615Z,2.79
2023-03-29T04:27:29.603Z,2.79
2023-03-29T04:28:29.604Z,2.80
2023-03-29T04:29:29.627Z,2.80
2023-03-29T04:30:29.585Z,2.79
2023-03-29T04:31:31.012Z,2.80
2023-03-29T04:32:29.574Z,2.83
2023-03-29T04:33:29.577Z,2.84
2023-03-29T04:34:29.548Z,2.81
2023-03-29T04:35:29.518Z,2.80
2023-03-29T04:36:29.535Z,2.76
2023-03-29T04:37:29.497Z,2.76
2023-03-29T04:38:29.510Z,2.74
2023-03-29T04:39:29.578Z,2.76
2023-03-29T04:40:29.514Z,2.74
2023-03-29T04:41:29.503Z,2.74
2023-03-29T04:42:29.480Z,2.76
2023-03-29T04:43:29.473Z,2.76
2023-03-29T04:44:29.454Z,2.73
2023-03-29T04:45:29.487Z,2.73
2023-03-29T04:46:30.510Z,2.73
2023-03-29T04:47:29.639Z,2.74
2023-03-29T04:48:29.397Z,2.76
2023-03-29T04:49:29.423Z,2.76
2023-03-29T04:50:29.508Z,2.71
2023-03-29T04:51:29.364Z,2.69
2023-03-29T04:52:29.364Z,2.68
2023-03-29T04:53:29.389Z,2.65
2023-03-29T04:54:29.354Z,2.65
2023-03-29T04:55:29.329Z,2.65
2023-03-29T04:56:29.331Z,2.69
2023-03-29T04:57:29.345Z,2.69
2023-03-29T04:58:32.175Z,2.74
2023-03-29T04:59:29.310Z,2.74
2023-03-29T05:00:29.311Z,2.74
2023-03-29T05:01:29.305Z,2.69
2023-03-29T05:02:29.289Z,2.69
2023-03-29T05:03:29.269Z,2.69
2023-03-29T05:04:29.478Z,2.69
2023-03-29T05:05:29.237Z,2.71
2023-03-29T05:06:29.214Z,2.71
2023-03-29T05:07:29.200Z,2.66
2023-03-29T05:08:29.188Z,2.63
2023-03-29T05:09:29.196Z,2.62
2023-03-29T05:10:29.177Z,2.62
2023-03-29T05:11:29.169Z,2.61
2023-03-29T05:12:29.170Z,2.62
2023-03-29T05:13:29.626Z,2.63
2023-03-29T05:14:29.160Z,2.68
2023-03-29T05:15:29.130Z,2.73
2023-03-29T05:16:29.191Z,2.77
2023-03-29T05:17:29.445Z,2.80
2023-03-29T05:18:29.170Z,2.83
2023-03-29T05:19:29.095Z,2.89
2023-03-29T05:20:29.574Z,2.97
2023-03-29T05:21:29.180Z,2.99
2023-03-29T05:22:29.426Z,3.02
2023-03-29T05:23:29.027Z,3.04
2023-03-29T05:24:29.055Z,3.08
2023-03-29T05:25:29.008Z,3.12
2023-03-29T05:26:29.014Z,3.16
2023-03-29T05:27:29.994Z,3.16
2023-03-29T05:28:29.027Z,3.13
2023-03-29T05:29:29.006Z,3.16
2023-03-29T05:30:28.956Z,3.16
2023-03-29T05:31:28.986Z,3.16
2023-03-29T05:32:28.997Z,3.17
2023-03-29T05:33:28.970Z,3.17
2023-03-29T05:34:28.927Z,3.19
2023-03-29T05:35:29.001Z,3.20
2023-03-29T05:36:28.892Z,3.22
2023-03-29T05:37:28.870Z,3.23
2023-03-29T05:38:28.884Z,3.26
2023-03-29T05:39:28.878Z,3.26
2023-03-29T05:40:28.847Z,3.30
2023-03-29T05:41:28.884Z,3.30
2023-03-29T05:42:28.823Z,3.37
2023-03-29T05:43:28.810Z,3.37
2023-03-29T05:44:28.833Z,3.39
2023-03-29T05:45:28.829Z,3.37
2023-03-29T05:46:28.810Z,3.34
2023-03-29T05:47:28.834Z,3.34
2023-03-29T05:48:28.850Z,3.28
2023-03-29T05:49:28.757Z,3.28
2023-03-29T05:50:28.750Z,3.28
2023-03-29T05:51:28.745Z,3.33
2023-03-29T05:52:28.749Z,3.34
2023-03-29T05:53:28.722Z,3.39
2023-03-29T05:54:28.713Z,3.41
2023-03-29T05:55:28.698Z,3.45
2023-03-29T05:56:28.766Z,3.50
2023-03-29T05:57:28.722Z,3.54
2023-03-29T05:58:28.672Z,3.57
2023-03-29T05:59:28.676Z,3.67
2023-03-29T06:00:28.658Z,3.63
2023-03-29T06:01:28.823Z,3.63
2023-03-29T06:02:30.387Z,3.64
2023-03-29T06:03:29.120Z,3.67
2023-03-29T06:04:29.010Z,3.68
2023-03-29T06:05:28.584Z,3.71
2023-03-29T06:06:28.582Z,3.64
2023-03-29T06:07:28.586Z,3.67
2023-03-29T06:08:28.591Z,3.67
2023-03-29T06:09:28.557Z,3.68
2023-03-29T06:10:28.860Z,3.71
2023-03-29T06:11:28.513Z,3.72
2023-03-29T06:12:28.504Z,3.75
2023-03-29T06:13:28.516Z,3.80
2023-03-29T06:14:28.498Z,3.74
2023-03-29T06:15:28.514Z,3.75
2023-03-29T06:16:28.507Z,3.72
2023-03-29T06:17:28.520Z,3.72
2023-03-29T06:18:28.480Z,3.80
2023-03-29T06:19:28.457Z,3.84
2023-03-29T06:20:28.427Z,3.86
2023-03-29T06:21:28.443Z,3.84
2023-03-29T06:22:28.435Z,3.77
2023-03-29T06:23:28.395Z,3.81
2023-03-29T06:24:28.381Z,3.77
2023-03-29T06:25:28.365Z,3.81
2023-03-29T06:26:28.418Z,3.89
2023-03-29T06:27:28.361Z,3.96
2023-03-29T06:28:28.375Z,3.95
2023-03-29T06:29:28.351Z,3.93
2023-03-29T06:30:28.350Z,4.00
2023-03-29T06:31:28.380Z,4.08
2023-03-29T06:32:28.550Z,4.13
2023-03-29T06:33:28.311Z,4.16
2023-03-29T06:34:28.308Z,4.16
2023-03-29T06:35:28.356Z,4.17
2023-03-29T06:36:28.264Z,4.16
2023-03-29T06:37:28.342Z,4.14
2023-03-29T06:38:28.261Z,4.16
2023-03-29T06:39:28.258Z,4.16
2023-03-29T06:40:28.248Z,4.24
2023-03-29T06:41:28.223Z,4.53
2023-03-29T06:42:28.195Z,4.80
2023-03-29T06:43:28.188Z,4.94
2023-03-29T06:44:28.209Z,5.01
2023-03-29T06:45:29.427Z,5.08
2023-03-29T06:46:28.219Z,5.14
2023-03-29T06:47:28.166Z,5.06
2023-03-29T06:48:28.145Z,4.86
2023-03-29T06:49:28.131Z,4.75
2023-03-29T06:50:28.667Z,4.71
2023-03-29T06:51:29.053Z,4.72
2023-03-29T06:52:28.688Z,4.72
2023-03-29T06:53:28.112Z,4.72
2023-03-29T06:54:28.091Z,4.77
2023-03-29T06:55:28.062Z,4.80
2023-03-29T06:56:28.048Z,4.88
2023-03-29T06:57:28.083Z,4.94
2023-03-29T06:58:28.021Z,4.94
2023-03-29T06:59:28.021Z,4.90
2023-03-29T07:00:28.304Z,4.75
2023-03-29T07:01:28.078Z,4.69
2023-03-29T07:02:28.006Z,4.71
2023-03-29T07:03:27.961Z,4.72
2023-03-29T07:04:28.037Z,4.68
2023-03-29T07:05:27.941Z,4.64
2023-03-29T07:06:27.960Z,4.62
2023-03-29T07:07:27.931Z,4.53
2023-03-29T07:08:27.960Z,4.50
2023-03-29T07:09:27.909Z,4.49
2023-03-29T07:10:27.886Z,4.49
2023-03-29T07:11:27.933Z,4.51
2023-03-29T07:12:27.865Z,4.49
2023-03-29T07:13:27.866Z,4.46
2023-03-29T07:14:27.898Z,4.36
2023-03-29T07:15:27.827Z,4.38
2023-03-29T07:16:27.866Z,4.46
2023-03-29T07:17:27.859Z,4.50
2023-03-29T07:18:27.802Z,4.51
2023-03-29T07:19:27.818Z,4.54
2023-03-29T07:20:27.779Z,4.54
2023-03-29T07:21:27.811Z,4.57
2023-03-29T07:22:27.762Z,4.56
2023-03-29T07:23:27.740Z,4.57
2023-03-29T07:24:27.755Z,4.62
2023-03-29T07:25:27.752Z,4.75
2023-03-29T07:26:28.806Z,4.86
2023-03-29T07:27:27.752Z,4.88
2023-03-29T07:28:27.688Z,4.93
2023-03-29T07:29:28.326Z,5.04
2023-03-29T07:30:29.613Z,5.19
2023-03-29T07:31:27.652Z,5.14
2023-03-29T07:32:27.684Z,5.15
2023-03-29T07:33:27.768Z,5.24
2023-03-29T07:34:27.629Z,5.33
2023-03-29T07:35:27.640Z,5.49
2023-03-29T07:36:27.622Z,5.66
2023-03-29T07:37:27.588Z,5.84
2023-03-29T07:38:27.585Z,6.01
2023-03-29T07:39:27.564Z,6.02
2023-03-29T07:40:27.609Z,5.80
2023-03-29T07:41:27.608Z,5.80
2023-03-29T07:42:27.556Z,5.90
2023-03-29T07:43:27.527Z,6.02
2023-03-29T07:44:27.513Z,6.05
2023-03-29T07:45:28.384Z,5.93
2023-03-29T07:46:27.534Z,5.84
2023-03-29T07:47:27.537Z,5.78
2023-03-29T07:48:27.468Z,5.78
2023-03-29T07:49:27.478Z,5.95
2023-03-29T07:50:27.478Z,6.19
2023-03-29T07:51:27.464Z,6.38
2023-03-29T07:52:27.425Z,6.43
2023-03-29T07:53:27.426Z,6.50
2023-03-29T07:54:27.412Z,6.61
2023-03-29T07:55:27.410Z,6.76
2023-03-29T07:56:27.411Z,6.79
2023-03-29T07:57:27.498Z,7.18
2023-03-29T07:58:27.362Z,7.36
2023-03-29T07:59:27.385Z,7.63
2023-03-29T08:00:27.454Z,7.84
2023-03-29T08:01:27.354Z,7.84
2023-03-29T08:02:27.475Z,7.88
2023-03-29T08:03:27.401Z,7.89
2023-03-29T08:04:27.346Z,7.85
2023-03-29T08:05:40.224Z,7.85
2023-03-29T08:06:27.332Z,7.86
2023-03-29T08:07:27.269Z,7.82
2023-03-29T08:08:27.284Z,7.81
2023-03-29T08:09:27.269Z,7.91
2023-03-29T08:10:27.263Z,7.86
2023-03-29T08:11:27.248Z,7.82
2023-03-29T08:12:27.275Z,7.94
2023-03-29T08:13:27.409Z,7.95
2023-03-29T08:14:27.251Z,7.91
2023-03-29T08:15:27.361Z,7.91
2023-03-29T08:16:27.275Z,8.13
2023-03-29T08:17:27.264Z,8.43
2023-03-29T08:18:27.200Z,8.65
2023-03-29T08:19:27.192Z,8.70
2023-03-29T08:20:27.186Z,8.47
2023-03-29T08:21:27.152Z,8.54
2023-03-29T08:22:27.125Z,8.64
2023-03-29T08:23:27.131Z,8.82
2023-03-29T08:24:27.106Z,8.67
2023-03-29T08:25:27.120Z,8.67
2023-03-29T08:26:27.094Z,8.83
2023-03-29T08:27:27.139Z,8.68
2023-03-29T08:28:27.060Z,8.21
2023-03-29T08:29:27.066Z,8.25
2023-03-29T08:30:27.056Z,8.39
2023-03-29T08:31:27.081Z,8.40
2023-03-29T08:32:27.070Z,8.39
2023-03-29T08:33:27.047Z,8.47
2023-03-29T08:34:27.001Z,8.70
2023-03-29T08:35:26.992Z,8.73
2023-03-29T08:36:26.992Z,8.83
2023-03-29T08:37:26.972Z,8.85
2023-03-29T08:38:26.949Z,8.76
2023-03-29T08:39:26.935Z,9.03
2023-03-29T08:40:26.978Z,9.89
2023-03-29T08:41:26.930Z,9.96
2023-03-29T08:42:26.914Z,9.95
2023-03-29T08:43:26.919Z,12.03
2023-03-29T08:44:26.904Z,13.21
2023-03-29T08:45:26.912Z,13.94
2023-03-29T08:46:34.231Z,13.93
2023-03-29T08:47:26.941Z,13.86
2023-03-29T08:48:26.864Z,14.42
2023-03-29T08:49:26.831Z,15.18
2023-03-29T08:50:26.834Z,15.38
2023-03-29T08:51:26.844Z,16.01
2023-03-29T08:52:26.815Z,15.86
2023-03-29T08:53:26.804Z,15.67
2023-03-29T08:54:26.802Z,15.89
2023-03-29T08:55:26.810Z,15.51
2023-03-29T08:56:26.853Z,13.59
2023-03-29T08:57:26.869Z,12.58
2023-03-29T08:58:26.734Z,12.05
2023-03-29T08:59:26.735Z,11.09
2023-03-29T09:00:26.811Z,10.66
2023-03-29T09:01:26.784Z,11.20
2023-03-29T09:02:26.733Z,11.59
2023-03-29T09:03:26.737Z,11.74
2023-03-29T09:04:26.671Z,11.97
2023-03-29T09:05:26.744Z,12.04
2023-03-29T09:06:26.668Z,11.96
2023-03-29T09:07:26.737Z,11.67
2023-03-29T09:08:26.635Z,12.66
2023-03-29T09:09:26.635Z,13.32
2023-03-29T09:10:26.653Z,13.51
2023-03-29T09:11:26.612Z,13.01
2023-03-29T09:12:26.583Z,12.94
2023-03-29T09:13:26.638Z,13.62
2023-03-29T09:14:26.569Z,13.79
2023-03-29T09:15:26.578Z,14.36
2023-03-29T09:16:26.598Z,14.08
2023-03-29T09:17:26.640Z,13.66
2023-03-29T09:18:26.545Z,13.28
2023-03-29T09:19:26.525Z,12.56
2023-03-29T09:20:26.525Z,12.13
2023-03-29T09:21:26.511Z,12.03
2023-03-29T09:22:26.478Z,11.98
2023-03-29T09:23:26.472Z,11.74
2023-03-29T09:24:26.454Z,11.66
2023-03-29T09:25:26.504Z,11.21
2023-03-29T09:26:26.447Z,10.52
2023-03-29T09:27:26.429Z,10.42
2023-03-29T09:28:26.410Z,10.36
2023-03-29T09:29:26.407Z,10.34
2023-03-29T09:30:26.431Z,10.49
2023-03-29T09:31:26.471Z,10.76
2023-03-29T09:32:26.421Z,10.46
2023-03-29T09:33:26.366Z,10.34
2023-03-29T09:34:26.391Z,10.52
2023-03-29T09:35:26.343Z,11.01
2023-03-29T09:36:26.360Z,11.39
2023-03-29T09:37:26.324Z,12.03
2023-03-29T09:38:26.312Z,13.03
2023-03-29T09:39:26.297Z,13.96
2023-03-29T09:40:26.296Z,14.66
2023-03-29T09:41:26.294Z,14.27
2023-03-29T09:42:26.272Z,13.80
2023-03-29T09:43:26.255Z,13.55
2023-03-29T09:44:31.287Z,13.16
2023-03-29T09:45:26.286Z,13.39
2023-03-29T09:46:26.243Z,13.99
2023-03-29T09:47:26.245Z,15.22
2023-03-29T09:48:26.197Z,15.84
2023-03-29T09:49:26.211Z,15.30
2023-03-29T09:50:31.505Z,14.75
2023-03-29T09:51:26.303Z,14.52
2023-03-29T09:52:26.193Z,14.38
2023-03-29T09:53:26.148Z,13.50
2023-03-29T09:54:26.135Z,13.99
2023-03-29T09:55:26.150Z,14.45
2023-03-29T09:56:26.127Z,14.61
2023-03-29T09:57:26.241Z,14.56
2023-03-29T09:58:26.096Z,14.78
2023-03-29T09:59:26.139Z,14.38
2023-03-29T10:00:26.119Z,13.66
2023-03-29T10:01:26.201Z,12.79
2023-03-29T10:02:26.106Z,12.25
2023-03-29T10:03:26.054Z,12.18
2023-03-29T10:04:26.168Z,11.98
2023-03-29T10:05:26.087Z,12.07
2023-03-29T10:06:26.021Z,12.59
2023-03-29T10:07:27.843Z,13.01
2023-03-29T10:08:26.008Z,13.53
2023-03-29T10:09:26.040Z,13.80
2023-03-29T10:10:26.018Z,13.84
2023-03-29T10:11:26.120Z,14.16
2023-03-29T10:12:26.528Z,13.80
2023-03-29T10:13:25.963Z,13.51
2023-03-29T10:14:25.945Z,13.38
2023-03-29T10:15:29.640Z,13.06
2023-03-29T10:16:26.016Z,13.17
2023-03-29T10:17:26.037Z,12.67
2023-03-29T10:18:25.918Z,12.49
2023-03-29T10:19:25.947Z,12.40
2023-03-29T10:20:25.870Z,11.79
2023-03-29T10:21:25.965Z,11.82
2023-03-29T10:22:25.863Z,11.78
2023-03-29T10:23:25.837Z,12.13
2023-03-29T10:24:25.814Z,12.55
2023-03-29T10:25:25.817Z,12.85
2023-03-29T10:26:25.796Z,13.57
2023-03-29T10:27:25.779Z,14.11
2023-03-29T10:28:25.798Z,14.53
2023-03-29T10:29:25.826Z,14.30
2023-03-29T10:30:25.833Z,13.80
2023-03-29T10:31:25.821Z,12.91
2023-03-29T10:32:25.809Z,13.14
2023-03-29T10:33:25.717Z,13.41
2023-03-29T10:34:25.732Z,13.03
2023-03-29T10:35:25.727Z,12.30
2023-03-29T10:36:25.693Z,12.66
2023-03-29T10:37:25.870Z,13.88
2023-03-29T10:38:25.660Z,15.22
2023-03-29T10:39:25.900Z,15.70
2023-03-29T10:40:25.822Z,15.77
2023-03-29T10:41:25.787Z,15.43
2023-03-29T10:42:25.647Z,15.95
2023-03-29T10:43:25.641Z,16.23
2023-03-29T10:44:25.590Z,15.56
2023-03-29T10:45:25.609Z,14.78
2023-03-29T10:46:25.661Z,13.69
2023-03-29T10:47:25.666Z,13.25
2023-03-29T10:48:25.571Z,13.99
2023-03-29T10:49:25.553Z,13.10
2023-03-29T10:50:25.573Z,12.12
2023-03-29T10:51:25.560Z,11.84
2023-03-29T10:52:25.591Z,11.60
2023-03-29T10:53:25.542Z,11.23
2023-03-29T10:54:25.531Z,11.17
2023-03-29T10:55:25.485Z,11.98
2023-03-29T10:56:25.518Z,11.54
2023-03-29T10:57:25.516Z,11.31
2023-03-29T10:58:25.485Z,11.08
2023-03-29T10:59:25.494Z,10.86
2023-03-29T11:00:25.462Z,10.87
2023-03-29T11:01:25.509Z,10.78
2023-03-29T11:02:25.482Z,10.63
2023-03-29T11:03:25.505Z,10.57
2023-03-29T11:04:25.404Z,10.55
2023-03-29T11:05:25.392Z,10.55
2023-03-29T11:06:25.403Z,10.55
2023-03-29T11:07:25.390Z,10.54
2023-03-29T11:08:25.368Z,10.55
2023-03-29T11:09:25.339Z,10.47
2023-03-29T11:10:25.346Z,10.34
2023-03-29T11:11:25.326Z,10.42
2023-03-29T11:12:25.307Z,10.57
2023-03-29T11:13:25.326Z,10.68
2023-03-29T11:14:25.293Z,10.73
2023-03-29T11:15:25.350Z,10.69
2023-03-29T11:16:25.456Z,10.72
2023-03-29T11:17:25.482Z,10.70
2023-03-29T11:18:25.247Z,10.70
2023-03-29T11:19:25.280Z,10.76
2023-03-29T11:20:25.212Z,10.76
2023-03-29T11:21:25.325Z,10.66
2023-03-29T11:22:25.338Z,10.46
2023-03-29T11:23:25.235Z,10.44
2023-03-29T11:24:25.218Z,10.51
2023-03-29T11:25:26.601Z,10.47
2023-03-29T11:26:25.351Z,10.54
2023-03-29T11:27:25.220Z,10.57
2023-03-29T11:28:25.174Z,10.68
2023-03-29T11:29:25.180Z,10.65
2023-03-29T11:30:25.147Z,10.63
2023-03-29T11:31:25.346Z,10.86
2023-03-29T11:32:25.121Z,10.93
2023-03-29T11:33:25.099Z,10.99
2023-03-29T11:34:25.125Z,10.94
2023-03-29T11:35:25.085Z,10.76
2023-03-29T11:36:25.107Z,10.68
2023-03-29T11:37:25.041Z,10.60
2023-03-29T11:38:25.057Z,10.65
2023-03-29T11:39:25.116Z,10.63
2023-03-29T11:40:25.057Z,10.70
2023-03-29T11:41:25.016Z,10.70
2023-03-29T11:42:24.976Z,10.72
2023-03-29T11:43:25.013Z,10.99
2023-03-29T11:44:25.077Z,11.30
2023-03-29T11:45:24.948Z,11.69
2023-03-29T11:46:25.042Z,11.72
2023-03-29T11:47:25.044Z,11.84
2023-03-29T11:48:24.960Z,11.87
2023-03-29T11:49:24.929Z,11.85
2023-03-29T11:50:24.928Z,11.70
2023-03-29T11:51:24.927Z,11.75
2023-03-29T11:52:24.918Z,11.88
2023-03-29T11:53:24.949Z,11.90
2023-03-29T11:54:24.883Z,11.69
2023-03-29T11:55:24.859Z,11.54
2023-03-29T11:56:24.869Z,11.45
2023-03-29T11:57:25.012Z,11.51
2023-03-29T11:58:25.291Z,11.59
2023-03-29T11:59:24.849Z,11.69
2023-03-29T12:00:24.832Z,11.74
2023-03-29T12:01:24.884Z,11.45
2023-03-29T12:02:24.883Z,11.17
2023-03-29T12:03:24.934Z,11.05
2023-03-29T12:04:24.958Z,11.16
2023-03-29T12:05:24.781Z,11.28
2023-03-29T12:06:24.882Z,11.60
2023-03-29T12:07:24.741Z,11.93
2023-03-29T12:08:24.745Z,12.07
2023-03-29T12:09:24.761Z,12.15
2023-03-29T12:10:24.727Z,12.40
2023-03-29T12:11:24.781Z,12.44
2023-03-29T12:12:24.766Z,12.56
2023-03-29T12:13:24.773Z,12.63
2023-03-29T12:14:26.713Z,12.48
2023-03-29T12:15:24.719Z,12.91
2023-03-29T12:16:24.750Z,13.50
2023-03-29T12:17:24.809Z,13.75
2023-03-29T12:18:24.669Z,13.83
2023-03-29T12:19:25.585Z,14.08
2023-03-29T12:20:24.624Z,13.71
2023-03-29T12:21:24.843Z,13.38
2023-03-29T12:22:24.593Z,12.95
2023-03-29T12:23:24.572Z,12.73
2023-03-29T12:24:25.187Z,12.84
2023-03-29T12:25:24.550Z,12.84
2023-03-29T12:26:24.580Z,13.01
2023-03-29T12:27:24.529Z,13.07
2023-03-29T12:28:24.572Z,13.12
2023-03-29T12:29:24.510Z,13.25
2023-03-29T12:30:24.582Z,13.43
2023-03-29T12:31:24.491Z,13.47
2023-03-29T12:32:24.541Z,12.80
2023-03-29T12:33:24.459Z,12.44
2023-03-29T12:34:24.456Z,12.11
2023-03-29T12:35:24.434Z,11.97
2023-03-29T12:36:24.587Z,11.78
2023-03-29T12:37:24.420Z,11.69
2023-03-29T12:38:24.419Z,11.60
2023-03-29T12:39:24.395Z,11.57
2023-03-29T12:40:24.593Z,11.63
2023-03-29T12:41:24.462Z,11.51
2023-03-29T12:42:24.475Z,11.38
2023-03-29T12:43:24.392Z,11.44
2023-03-29T12:44:24.731Z,11.48
2023-03-29T12:45:24.386Z,11.53
2023-03-29T12:46:24.487Z,11.62
2023-03-29T12:47:24.339Z,11.64
2023-03-29T12:48:24.304Z,11.69
2023-03-29T12:49:24.338Z,11.60
2023-03-29T12:50:24.379Z,11.59
2023-03-29T12:51:24.338Z,11.60
2023-03-29T12:52:24.253Z,11.70
2023-03-29T12:53:24.259Z,11.56
2023-03-29T12:54:26.184Z,11.39
2023-03-29T12:55:24.232Z,11.28
2023-03-29T12:56:24.365Z,11.17
2023-03-29T12:57:24.338Z,11.20
2023-03-29T12:58:24.276Z,11.19
2023-03-29T12:59:24.244Z,11.16
2023-03-29T13:00:24.235Z,11.26
2023-03-29T13:01:24.431Z,11.35
2023-03-29T13:02:24.320Z,11.35
2023-03-29T13:03:24.228Z,11.31
2023-03-29T13:04:24.190Z,11.41
2023-03-29T13:05:24.169Z,11.38
2023-03-29T13:06:24.122Z,11.42
2023-03-29T13:07:24.204Z,11.44
2023-03-29T13:08:24.144Z,11.46
2023-03-29T13:09:24.082Z,11.46